• Join FlightAware (Why Join?)
  • Login
  • US Flag 
04:08PM EDT


 

Airport Tracker/Info


-or-


 

Live Flight TrackerFlight Track Log ✈ BOE1 ✈ 19-Feb-2010 ✈ KBFI - KMWH

Flight Track Log - Related Links

Times and Time Zones

All times are in EST time to prevent confusion due to time zone crossing. See the BOE1 flight status page for this flight to view local times or setup timezone preferences in your user account.

Time Position Orientation Groundspeed Altitude Reporting Facility
EST Latitude Longitude Course Direction KTS MPH feet Rate Location/Type
02:30PM 47.5539 -122.3270 320° Northwest 184 212 1,500  Level Seattle Center
02:32PM 47.6289 -122.4200 320° Northwest 239 275 4,600 2,340 Climbing Seattle Center
02:33PM 47.6794 -122.4840 24° Northeast 256 295 7,700 3,120 Climbing Seattle Center
02:34PM 47.7406 -122.4440 33° Northeast 211 243 11,200 3,180 Climbing Seattle Center
02:35PM 47.7981 -122.3880 32° Northeast 213 245 14,100 2,700 Climbing Seattle Center
02:36PM 47.8553 -122.3350 30° Northeast 226 260 16,600 2,100 Climbing Seattle Center
02:37PM 47.9211 -122.2790 20° North 247 284 18,300 1,980 Climbing Seattle Center
02:38PM 47.9989 -122.2370 21° North 272 313 20,600 1,800 Climbing Seattle Center
02:39PM 48.0747 -122.1940 50° Northeast 283 326 22,000 660 Climbing Seattle Center
02:40PM 48.1264 -122.1030 93° East 283 326 22,000 -60 Level Seattle Center
02:41PM 48.1208 -121.9530 93° East 270 311 21,900  Descending Seattle Center
02:42PM 48.1136 -121.7790 96° East 350 403 22,000  Climbing Seattle Center
02:43PM 48.1000 -121.5860 93° East 413 475 22,000  Level Seattle Center
02:44PM 48.0925 -121.3960 78° East 440 506 22,100  Climbing Seattle Center
02:45PM 48.1175 -121.2230 101° East 434 499 22,000 -120 Descending Seattle Center
02:46PM 48.0925 -121.0400 100° East 434 499 21,900  Descending Seattle Center
02:47PM 48.0714 -120.8530 102° East 448 516 22,000  Climbing Seattle Center
02:48PM 48.0458 -120.6660 99° East 453 521 22,000  Level Seattle Center
02:49PM 48.0264 -120.4800 96° East 453 521 22,000  Level Seattle Center
02:50PM 48.0128 -120.2910 95° East 453 521 22,100 120 Climbing Seattle Center
02:51PM 48.0008 -120.1050 95° East 453 521 22,300  Climbing Seattle Center
02:52PM 47.9908 -119.9190 93° East 453 521 22,200 -240 Descending Seattle Center
02:53PM 47.9847 -119.7330 96° East 448 516 21,900 -180 Descending Seattle Center
02:54PM 47.9719 -119.5470 96° East 448 516 21,900  Level Seattle Center
02:55PM 47.9592 -119.3620 98° East 443 510 22,000  Climbing Seattle Center
02:56PM 47.9417 -119.1790 100° East 443 510 21,900 -60 Descending Seattle Center
02:57PM 47.9197 -118.9910 98° East 448 516 21,900  Level Seattle Center
02:58PM 47.9017 -118.8050 95° East 448 516 21,900 -120 Level Seattle Center
02:59PM 47.8917 -118.6200 95° East 448 516 21,700 -180 Descending Seattle Center
03:00PM 47.8814 -118.4380 93° East 443 510 21,600 -120 Descending Seattle Center
03:01PM 47.8750 -118.2490 94° East 443 510 21,500 180 Descending Seattle Center
03:02PM 47.8661 -118.0670 93° East 443 510 22,000 180 Climbing Seattle Center
03:03PM 47.8594 -117.9010 94° East 428 493 22,000 180 Level Seattle Center
03:04PM 47.8503 -117.7250 91° East 382 440 22,500 1,620 Climbing Seattle Center
03:05PM 47.8481 -117.5950 94° East 343 395 25,300 2,400 Climbing Seattle Center
03:06PM 47.8414 -117.4630 94° East 324 373 27,400 1,800 Climbing Seattle Center
03:07PM 47.8344 -117.3270 93° East 319 367 28,900 1,260 Climbing Seattle Center
03:08PM 47.8294 -117.1910 97° East 319 367 30,000 540 Climbing Seattle Center
03:09PM 47.8178 -117.0440 95° East 329 379 30,000  Level Seattle Center
03:10PM 47.8103 -116.9080 96° East 329 379 30,000 -120 Level Seattle Center
03:11PM 47.8008 -116.7730 97° East 329 379 29,800 -60 Descending Seattle Center
03:12PM 47.7889 -116.6340 96° East 329 379 29,900  Climbing Seattle Center
03:13PM 47.7789 -116.4990 120° Southeast 329 379 29,900  Level Seattle Center
03:14PM 47.7339 -116.3820 201° Southwest 329 379 29,900 -120 Level Seattle Center
03:15PM 47.6233 -116.4440 278° West 278 320 29,700  Descending Seattle Center
03:16PM 47.6381 -116.5970 305° West 218 251 30,000 180 Climbing Seattle Center
03:17PM 47.6953 -116.7200 293° West 259 298 30,100 -120 Climbing Seattle Center
03:18PM 47.7364 -116.8630 290° West 326 375 29,800 -300 Descending Seattle Center
03:19PM 47.7736 -117.0180 290° West 381 438 29,500  Descending Seattle Center
03:20PM 47.8056 -117.1490 282° West 388 447 29,800 240 Climbing Seattle Center
03:21PM 47.8278 -117.3090 283° West 388 447 30,000 60 Climbing Seattle Center
03:22PM 47.8519 -117.4680 277° West 393 452 30,000  Level Seattle Center
03:23PM 47.8656 -117.6380 277° West 404 465 30,000  Level Seattle Center
03:24PM 47.8789 -117.8070 278° West 410 472 30,000  Level Seattle Center
03:25PM 47.8939 -117.9770 277° West 416 479 30,000  Level Seattle Center
03:26PM 47.9069 -118.1460 277° West 416 479 30,000  Level Seattle Center
03:27PM 47.9214 -118.3130 276° West 421 484 30,000  Level Seattle Center
03:28PM 47.9339 -118.4830 277° West 421 484 30,000  Level Seattle Center
03:29PM 47.9481 -118.6500 275° West 421 484 30,000  Level Seattle Center
03:30PM 47.9581 -118.8170 276° West 421 484 30,000  Level Seattle Center
03:31PM 47.9694 -118.9840 275° West 416 479 30,100 60 Climbing Seattle Center
03:32PM 47.9789 -119.1510 276° West 416 479 30,200 -240 Climbing Seattle Center
03:33PM 47.9900 -119.3180 272° West 410 472 29,700 -720 Descending Seattle Center
03:34PM 47.9928 -119.4790 226° Southwest 403 464 28,800 -1,020 Descending Seattle Center
03:35PM 47.9078 -119.6090 174° South 399 459 27,700 -1,200 Descending Seattle Center
03:36PM 47.7892 -119.5910 165° South 352 405 26,500 -2,040 Descending Seattle Center
03:37PM 47.6767 -119.5460 164° South 373 429 23,700 -2,880 Descending Seattle Center
03:38PM 47.5725 -119.5030 163° South 378 435 20,800 -2,940 Descending Seattle Center
03:39PM 47.4767 -119.4610 160° South 373 429 17,900 -2,520 Descending Seattle Center
03:40PM 47.3914 -119.4150 162° South 353 406 15,800 -2,220 Descending Seattle Center
03:41PM 47.3122 -119.3760 177° South 324 373 13,500 -2,400 Descending Seattle Center
03:42PM 47.2392 -119.3700 192° South 287 330 11,000 -2,520 Descending Seattle Center
03:43PM 47.1789 -119.3890 186° South 247 284 8,500 -3,000 Descending Seattle Center
03:44PM 47.1414 -119.3950 150° Southeast 207 238 6,500 -2,940 Descending Seattle Center
03:44PM 47.1206 -119.3770 100° East 233 268 5,600 -1,680 Descending Seattle Center
03:45PM 47.1119 -119.3040 39° Northeast 160 184 4,000 -1,680 Descending Seattle Center
03:46PM 47.1431 -119.2670 329° Northwest 92 106 2,300 -1,440 Descending Seattle Center
03:47PM 47.1933 -119.3120 29° Northeast 82 94 1,200 1,320 Descending Seattle Center
03:48PM 47.2119 -119.2970 16° North 82 94 5,000 1,860 Climbing Seattle Center
03:49PM 47.2328 -119.2880 13° North 82 94 5,000  Level Seattle Center
03:50PM 47.2533 -119.2810 18° North 82 94 5,000  Level Seattle Center
03:51PM 47.2658 -119.2750 360° North 82 94 5,000  Level Seattle Center
03:52PM 47.2658 -119.2750 360° North 82 94 5,000  Level Seattle Center
03:53PM 47.2658 -119.2750 360° North 82 94 5,000  Level Seattle Center
03:54PM 47.2658 -119.2750 360° North 82 94 5,000  Level Seattle Center
03:55PM 47.2658 -119.2750 360° North 82 94 5,000  Level Seattle Center